Galston, United Kingdom
Current Conditions -  °F | °C
As of 11:50 AM on Wednesday 28 Jan 2015 (Local Time) from EGPK Reporting Station
Rain Showers Rain Showers  
Wind Chill: 28°   Ceiling: Unl
Heat Index: 39°   Visibility: 6mi
Dew Point: 32°   Wind: 28mph
Humidity: 75%   Direction: 280°W
Pressure: 29.29"   Gusts: NA
Location:  55.6°N, 4.38°W
Report Text: EGPK 281150Z 28024KT 9999 -SHRA FEW010 SCT028CB 04/00 Q0992
Loading
Personal Weather Stations






























Interactive Weather Map New forecast layout! Learn more

10-Day Weather Forecast

Advertisements
Track Severe Weather on mobile